createdAt,value
2023-04-27T00:02:51.758Z,9.33
2023-04-27T00:05:53.733Z,9.91
2023-04-27T00:08:55.725Z,9.06
2023-04-27T00:11:57.585Z,10.36
2023-04-27T00:14:59.812Z,10.06
2023-04-27T00:18:02.172Z,10.18
2023-04-27T00:21:04.176Z,9.95
2023-04-27T00:24:06.168Z,10.27
2023-04-27T00:27:08.305Z,9.72
2023-04-27T00:30:10.365Z,10.13
2023-04-27T00:33:12.250Z,10.14
2023-04-27T00:36:14.072Z,8.84
2023-04-27T00:39:16.857Z,9.28
2023-04-27T00:42:19.760Z,8.76
2023-04-27T00:45:21.644Z,8.42
2023-04-27T00:48:23.514Z,8.88
2023-04-27T00:51:30.310Z,9.19
2023-04-27T00:54:32.196Z,8.88
2023-04-27T00:57:34.351Z,8.86
2023-04-27T01:00:36.643Z,8.59
2023-04-27T01:03:38.818Z,9.61
2023-04-27T01:06:40.751Z,9.55
2023-04-27T01:09:42.616Z,8.66
2023-04-27T01:12:44.539Z,8.13
2023-04-27T01:15:46.392Z,8.59
2023-04-27T01:18:48.290Z,9.01
2023-04-27T01:21:50.148Z,8.56
2023-04-27T01:24:52.123Z,8.67
2023-04-27T01:27:54.483Z,8.49
2023-04-27T01:30:56.488Z,9.47
2023-04-27T01:33:58.355Z,8.58
2023-04-27T01:37:00.227Z,8.66
2023-04-27T01:40:02.072Z,8.53
2023-04-27T01:43:04.072Z,8.35
2023-04-27T01:46:07.084Z,8.48
2023-04-27T01:49:09.032Z,8.65
2023-04-27T01:52:10.937Z,8.48
2023-04-27T01:55:12.761Z,9.20
2023-04-27T01:58:14.644Z,9.42
2023-04-27T02:01:16.594Z,9.21
2023-04-27T02:04:18.567Z,8.17
2023-04-27T02:07:20.791Z,8.24
2023-04-27T02:10:22.630Z,7.85
2023-04-27T02:13:24.489Z,7.92
2023-04-27T02:16:26.297Z,7.77
2023-04-27T02:19:28.122Z,7.59
2023-04-27T02:22:29.983Z,7.88
2023-04-27T02:25:31.857Z,8.45
2023-04-27T02:28:33.826Z,8.38
2023-04-27T02:31:36.163Z,7.41
2023-04-27T02:34:38.087Z,7.66
2023-04-27T02:37:40.053Z,7.62
2023-04-27T02:40:42.119Z,7.75
2023-04-27T02:43:43.978Z,8.23
2023-04-27T02:46:45.930Z,8.48
2023-04-27T02:49:47.940Z,8.24
2023-04-27T02:52:49.835Z,8.05
2023-04-27T02:55:52.007Z,7.97
2023-04-27T02:58:53.859Z,7.54
2023-04-27T03:01:55.744Z,7.75
2023-04-27T03:04:59.269Z,7.23
2023-04-27T03:08:01.501Z,7.13
2023-04-27T03:11:04.029Z,7.13
2023-04-27T03:14:06.331Z,7.63
2023-04-27T03:17:08.224Z,7.41
2023-04-27T03:20:10.514Z,8.01
2023-04-27T03:23:12.387Z,7.92
2023-04-27T03:26:14.429Z,7.36
2023-04-27T03:29:16.272Z,7.37
2023-04-27T03:32:18.140Z,7.56
2023-04-27T03:35:20.070Z,7.33
2023-04-27T03:38:22.016Z,6.91
2023-04-27T03:41:23.903Z,7.33
2023-04-27T03:44:25.860Z,6.57
2023-04-27T03:47:27.722Z,6.77
2023-04-27T03:50:30.316Z,7.22
2023-04-27T03:53:32.362Z,7.07
2023-04-27T03:56:34.685Z,7.71
2023-04-27T03:59:36.699Z,7.98
2023-04-27T04:02:39.234Z,8.05
2023-04-27T04:05:41.382Z,7.17
2023-04-27T04:08:43.313Z,7.12
2023-04-27T04:11:45.158Z,7.13
2023-04-27T04:14:49.048Z,6.91
2023-04-27T04:17:51.319Z,7.54
2023-04-27T04:20:53.417Z,7.21
2023-04-27T04:23:55.388Z,7.77
2023-04-27T04:26:58.628Z,6.86
2023-04-27T04:30:00.634Z,7.01
2023-04-27T04:33:02.840Z,6.27
2023-04-27T04:36:04.946Z,7.32
2023-04-27T04:39:07.147Z,7.53
2023-04-27T04:42:09.071Z,8.10
2023-04-27T04:45:11.090Z,8.08
2023-04-27T04:48:14.445Z,8.69
2023-04-27T04:51:16.791Z,8.62
2023-04-27T04:54:18.694Z,9.05
2023-04-27T04:57:20.900Z,9.20
2023-04-27T05:00:23.449Z,9.74
2023-04-27T05:03:25.729Z,10.54
2023-04-27T05:06:27.800Z,12.10
2023-04-27T05:09:29.966Z,11.32
2023-04-27T05:12:31.980Z,11.73
2023-04-27T05:15:33.909Z,12.89
2023-04-27T05:18:36.371Z,12.86
2023-04-27T05:21:38.623Z,12.86
2023-04-27T05:24:40.837Z,12.84
2023-04-27T05:27:42.755Z,13.96
2023-04-27T05:30:44.792Z,13.25
2023-04-27T05:33:47.154Z,14.58
2023-04-27T05:36:49.040Z,13.85
2023-04-27T05:39:51.080Z,13.95
2023-04-27T05:42:53.117Z,14.11
2023-04-27T05:45:55.079Z,14.22
2023-04-27T05:48:57.028Z,14.14
2023-04-27T05:52:01.302Z,14.74
2023-04-27T05:55:03.820Z,14.43
2023-04-27T05:58:08.974Z,15.20
2023-04-27T06:01:11.425Z,15.16
2023-04-27T06:04:13.393Z,15.53
2023-04-27T06:07:16.343Z,15.33
2023-04-27T06:10:18.441Z,14.39
2023-04-27T06:13:20.570Z,14.13
2023-04-27T06:16:23.043Z,16.38
2023-04-27T06:19:25.557Z,15.36
2023-04-27T06:22:27.848Z,14.19
2023-04-27T06:25:29.883Z,14.46
2023-04-27T06:28:32.036Z,14.78
2023-04-27T06:31:34.333Z,14.29
2023-04-27T06:34:36.443Z,14.70
2023-04-27T06:37:38.393Z,13.94
2023-04-27T06:40:40.463Z,14.98
2023-04-27T06:43:42.517Z,15.31
2023-04-27T06:46:44.579Z,15.09
2023-04-27T06:49:48.469Z,14.72
2023-04-27T06:52:51.513Z,15.45
2023-04-27T06:55:53.556Z,16.44
2023-04-27T06:58:55.775Z,16.45
2023-04-27T07:01:57.871Z,16.03
2023-04-27T07:05:00.399Z,16.06
2023-04-27T07:08:05.348Z,17.18
2023-04-27T07:11:12.423Z,17.63
2023-04-27T07:14:15.167Z,17.58
2023-04-27T07:17:17.283Z,17.21
2023-04-27T07:20:19.608Z,18.75
2023-04-27T07:23:23.738Z,18.41
2023-04-27T07:26:25.721Z,18.70
2023-04-27T07:29:30.514Z,18.14
2023-04-27T07:32:35.446Z,18.73
2023-04-27T07:35:37.629Z,20.09
2023-04-27T07:38:39.646Z,18.61
2023-04-27T07:41:43.915Z,18.13
2023-04-27T07:44:45.826Z,17.79
2023-04-27T07:47:47.935Z,18.72
2023-04-27T07:50:50.232Z,19.47
2023-04-27T07:53:52.246Z,19.74
2023-04-27T07:56:54.533Z,19.54
2023-04-27T07:59:57.122Z,21.05
2023-04-27T08:02:59.404Z,21.25
2023-04-27T08:06:02.231Z,19.25
2023-04-27T08:09:04.544Z,18.54
2023-04-27T08:12:06.882Z,17.81
2023-04-27T08:15:09.113Z,18.65
2023-04-27T08:18:11.040Z,17.94
2023-04-27T08:21:15.497Z,18.83
2023-04-27T08:24:17.440Z,19.18
2023-04-27T08:27:19.330Z,20.31
2023-04-27T08:30:21.847Z,20.59
2023-04-27T08:33:24.539Z,20.02
2023-04-27T08:36:27.895Z,19.76
2023-04-27T08:39:30.183Z,20.28
2023-04-27T08:42:31.975Z,21.10
2023-04-27T08:45:33.879Z,20.53
2023-04-27T08:48:36.338Z,19.18
2023-04-27T08:51:38.624Z,21.32
2023-04-27T08:54:40.939Z,19.49
2023-04-27T08:57:42.840Z,19.58
2023-04-27T09:00:47.133Z,16.70
2023-04-27T09:03:49.433Z,17.03
2023-04-27T09:06:54.189Z,17.66
2023-04-27T09:10:03.060Z,19.12
2023-04-27T09:13:05.002Z,19.66
2023-04-27T09:16:07.116Z,20.98
2023-04-27T09:19:09.109Z,22.23
2023-04-27T09:22:11.566Z,24.02
2023-04-27T09:25:30.064Z,23.19
2023-04-27T09:28:32.493Z,24.33
2023-04-27T09:31:34.849Z,22.65
2023-04-27T09:34:43.812Z,22.39
2023-04-27T09:37:45.803Z,21.52
2023-04-27T09:40:48.425Z,21.53
2023-04-27T09:43:50.315Z,21.29
2023-04-27T09:46:52.226Z,20.81
2023-04-27T09:49:54.361Z,20.44
2023-04-27T09:52:57.251Z,21.44
2023-04-27T09:55:59.086Z,22.11
2023-04-27T09:59:20.236Z,22.25
2023-04-27T10:02:24.753Z,22.79
2023-04-27T10:05:27.630Z,23.10
2023-04-27T10:08:29.616Z,23.26
2023-04-27T10:11:41.607Z,24.90
2023-04-27T10:14:57.149Z,23.64
2023-04-27T10:18:03.776Z,21.06
2023-04-27T10:21:12.157Z,20.70
2023-04-27T10:24:14.098Z,21.36
2023-04-27T10:27:16.941Z,19.95
2023-04-27T10:30:19.515Z,20.50
2023-04-27T10:33:22.502Z,20.78
2023-04-27T10:36:24.464Z,19.47
2023-04-27T10:39:46.955Z,21.89
2023-04-27T10:42:51.011Z,24.72
2023-04-27T10:45:53.179Z,25.22
2023-04-27T10:48:55.427Z,23.58
2023-04-27T10:51:58.293Z,21.76
2023-04-27T10:55:20.538Z,20.05
2023-04-27T10:58:23.442Z,21.83
2023-04-27T11:01:25.915Z,20.82
2023-04-27T11:04:41.547Z,20.43
2023-04-27T11:07:43.590Z,19.91
2023-04-27T11:10:47.204Z,17.02
2023-04-27T11:13:49.710Z,17.73
2023-04-27T11:16:52.208Z,17.08
2023-04-27T11:19:54.288Z,18.83
2023-04-27T11:22:56.230Z,20.05
2023-04-27T11:26:00.672Z,18.80
2023-04-27T11:29:09.893Z,18.29
2023-04-27T11:32:21.551Z,19.51
2023-04-27T11:35:33.756Z,18.21
2023-04-27T11:38:36.217Z,19.71
2023-04-27T11:41:39.351Z,21.22
2023-04-27T11:44:41.638Z,23.03
2023-04-27T11:47:46.656Z,21.97
2023-04-27T11:50:49.261Z,24.31
2023-04-27T11:53:54.405Z,21.66
2023-04-27T11:57:04.660Z,20.78
2023-04-27T12:00:13.327Z,22.17
2023-04-27T12:03:15.447Z,18.33
2023-04-27T12:09:24.071Z,17.96
2023-04-27T12:12:27.396Z,20.31
2023-04-27T12:15:29.343Z,21.30
2023-04-27T12:18:31.325Z,23.68
2023-04-27T12:21:34.090Z,23.64
2023-04-27T12:24:40.048Z,24.19
2023-04-27T12:27:45.078Z,25.90
2023-04-27T12:30:47.183Z,20.58
2023-04-27T12:33:49.549Z,19.30
2023-04-27T12:36:51.771Z,18.98
2023-04-27T12:39:53.817Z,17.30
2023-04-27T12:42:56.055Z,17.55
2023-04-27T12:46:00.137Z,18.66
2023-04-27T12:49:06.540Z,17.20
2023-04-27T12:52:08.786Z,17.05
2023-04-27T12:55:24.829Z,17.68
2023-04-27T12:58:33.482Z,16.25
2023-04-27T13:01:35.543Z,15.32
2023-04-27T13:04:37.871Z,16.00
2023-04-27T13:07:39.979Z,17.33
2023-04-27T13:10:42.470Z,16.55
2023-04-27T13:13:47.061Z,17.64
2023-04-27T13:16:49.306Z,17.74
2023-04-27T13:19:51.306Z,16.12
2023-04-27T13:22:53.561Z,15.61
2023-04-27T13:25:56.683Z,16.25
2023-04-27T13:28:58.987Z,16.37
2023-04-27T13:32:01.293Z,17.47
2023-04-27T13:35:04.129Z,16.36
2023-04-27T13:38:06.381Z,17.00
2023-04-27T13:41:08.815Z,16.15
2023-04-27T13:44:11.894Z,17.10
2023-04-27T13:47:14.172Z,17.15
2023-04-27T13:50:16.381Z,17.45
2023-04-27T13:53:18.398Z,16.98
2023-04-27T13:56:21.051Z,17.77
2023-04-27T13:59:23.135Z,17.27
2023-04-27T14:02:25.377Z,16.19
2023-04-27T14:05:27.490Z,16.70
2023-04-27T14:08:29.366Z,15.74
2023-04-27T14:11:31.405Z,16.53
2023-04-27T14:14:36.460Z,17.37
2023-04-27T14:17:38.599Z,17.05
2023-04-27T14:20:42.212Z,17.84
2023-04-27T14:23:44.199Z,17.16
2023-04-27T14:26:47.604Z,18.03
2023-04-27T14:29:49.976Z,17.05
2023-04-27T14:32:52.154Z,16.73
2023-04-27T14:35:54.261Z,15.76
2023-04-27T14:38:56.131Z,16.84
2023-04-27T14:41:58.115Z,16.91
2023-04-27T14:45:00.238Z,16.99
2023-04-27T14:48:02.357Z,17.02
2023-04-27T14:51:04.381Z,16.89
2023-04-27T14:54:07.887Z,17.08
2023-04-27T14:57:09.833Z,16.87
2023-04-27T15:00:14.630Z,16.90
2023-04-27T15:03:17.107Z,17.28
2023-04-27T15:06:19.546Z,17.30
2023-04-27T15:09:21.496Z,17.29
2023-04-27T15:12:23.387Z,17.00
2023-04-27T15:15:25.254Z,17.37
2023-04-27T15:18:27.234Z,17.17
2023-04-27T15:21:30.061Z,16.48
2023-04-27T15:24:32.066Z,16.55
2023-04-27T15:27:34.031Z,15.97
2023-04-27T15:30:36.110Z,16.67
2023-04-27T15:33:38.000Z,16.11
2023-04-27T15:36:39.925Z,16.87
2023-04-27T15:39:42.237Z,16.49
2023-04-27T15:42:44.233Z,16.19
2023-04-27T15:45:46.189Z,15.92
2023-04-27T15:48:48.107Z,16.79
2023-04-27T15:51:50.490Z,16.62
2023-04-27T15:54:52.453Z,16.29
2023-04-27T15:57:54.554Z,16.19
2023-04-27T16:00:56.430Z,15.65
2023-04-27T16:03:58.462Z,15.74
2023-04-27T16:07:00.407Z,16.48
2023-04-27T16:10:02.787Z,16.55
2023-04-27T16:13:04.752Z,16.31
2023-04-27T16:16:08.384Z,15.75
2023-04-27T16:19:10.409Z,15.22
2023-04-27T16:22:12.327Z,16.24
2023-04-27T16:25:14.200Z,15.76
2023-04-27T16:28:18.012Z,15.77
2023-04-27T16:31:20.226Z,16.19
2023-04-27T16:34:22.281Z,16.64
2023-04-27T16:37:24.110Z,16.65
2023-04-27T16:40:26.115Z,16.81
2023-04-27T16:43:30.054Z,16.62
2023-04-27T16:46:32.027Z,16.69
2023-04-27T16:49:34.164Z,16.25
2023-04-27T16:52:36.227Z,15.44
2023-04-27T16:55:38.163Z,16.34
2023-04-27T16:58:40.974Z,15.95
2023-04-27T17:01:43.093Z,15.67
2023-04-27T17:04:45.177Z,15.56
2023-04-27T17:07:47.369Z,15.76
2023-04-27T17:10:49.280Z,15.32
2023-04-27T17:13:51.197Z,14.87
2023-04-27T17:16:53.085Z,14.97
2023-04-27T17:19:54.967Z,15.42
2023-04-27T17:22:56.920Z,15.67
2023-04-27T17:25:58.790Z,15.76
2023-04-27T17:29:01.635Z,15.57
2023-04-27T17:32:04.350Z,15.24
2023-04-27T17:35:06.531Z,14.89
2023-04-27T17:38:08.569Z,14.73
2023-04-27T17:41:10.534Z,15.54
2023-04-27T17:44:12.908Z,15.41
2023-04-27T17:47:14.883Z,15.56
2023-04-27T17:50:16.769Z,15.22
2023-04-27T17:53:18.606Z,14.64
2023-04-27T17:56:20.523Z,15.20
2023-04-27T17:59:22.365Z,15.84
2023-04-27T18:02:26.840Z,15.35
2023-04-27T18:05:28.799Z,15.21
2023-04-27T18:08:30.682Z,14.50
2023-04-27T18:11:32.637Z,15.01
2023-04-27T18:14:34.550Z,15.54
2023-04-27T18:17:36.644Z,15.52
2023-04-27T18:20:38.575Z,15.47
2023-04-27T18:23:41.424Z,15.52
2023-04-27T18:26:43.311Z,15.36
2023-04-27T18:29:45.544Z,15.55
2023-04-27T18:32:47.469Z,15.17
2023-04-27T18:35:49.612Z,15.21
2023-04-27T18:38:51.505Z,15.64
2023-04-27T18:41:53.512Z,15.46
2023-04-27T18:44:55.391Z,15.52
2023-04-27T18:47:57.342Z,14.89
2023-04-27T18:50:59.232Z,14.12
2023-04-27T18:54:01.296Z,14.15
2023-04-27T18:57:04.348Z,14.24
2023-04-27T19:00:06.560Z,14.26
2023-04-27T19:03:08.718Z,14.82
2023-04-27T19:06:10.767Z,14.66
2023-04-27T19:09:13.071Z,14.82
2023-04-27T19:12:15.275Z,14.92
2023-04-27T19:15:17.190Z,15.22
2023-04-27T19:18:19.178Z,14.81
2023-04-27T19:21:21.104Z,14.49
2023-04-27T19:24:23.011Z,14.64
2023-04-27T19:27:25.052Z,14.50
2023-04-27T19:30:26.956Z,13.55
2023-04-27T19:33:29.385Z,13.26
2023-04-27T19:36:31.902Z,13.96
2023-04-27T19:39:34.453Z,13.50
2023-04-27T19:42:36.533Z,13.35
2023-04-27T19:45:39.119Z,13.27
2023-04-27T19:48:42.539Z,13.01
2023-04-27T19:51:44.720Z,12.75
2023-04-27T19:54:51.111Z,13.37
2023-04-27T19:57:52.987Z,12.76
2023-04-27T20:00:55.497Z,12.70
2023-04-27T20:03:57.781Z,12.74
2023-04-27T20:06:59.780Z,13.01
2023-04-27T20:10:02.905Z,13.11
2023-04-27T20:13:05.005Z,12.38
2023-04-27T20:16:09.093Z,12.30
2023-04-27T20:19:11.067Z,12.73
2023-04-27T20:22:13.308Z,12.70
2023-04-27T20:25:15.774Z,12.65
2023-04-27T20:28:18.051Z,12.58
2023-04-27T20:31:20.187Z,12.53
2023-04-27T20:34:22.101Z,12.65
2023-04-27T20:37:24.883Z,12.51
2023-04-27T20:40:26.794Z,13.03
2023-04-27T20:43:28.855Z,13.34
2023-04-27T20:46:31.179Z,12.54
2023-04-27T20:49:35.369Z,12.46
2023-04-27T20:52:37.864Z,12.36
2023-04-27T20:55:39.827Z,12.00
2023-04-27T20:58:41.856Z,11.66
2023-04-27T21:01:43.955Z,12.08
2023-04-27T21:04:46.099Z,11.91
2023-04-27T21:07:48.099Z,11.54
2023-04-27T21:10:49.995Z,12.95
2023-04-27T21:13:52.268Z,13.34
2023-04-27T21:16:54.204Z,12.33
2023-04-27T21:19:58.046Z,11.46
2023-04-27T21:23:00.658Z,11.29
2023-04-27T21:26:02.625Z,12.01
2023-04-27T21:29:05.943Z,12.17
2023-04-27T21:32:08.543Z,12.10
2023-04-27T21:35:10.516Z,12.34
2023-04-27T21:38:12.386Z,12.14
2023-04-27T21:41:15.654Z,12.54
2023-04-27T21:44:17.742Z,11.00
2023-04-27T21:47:19.734Z,10.44
2023-04-27T21:50:21.608Z,11.33
2023-04-27T21:53:23.534Z,11.32
2023-04-27T21:56:25.855Z,11.76
2023-04-27T21:59:27.724Z,12.14
2023-04-27T22:02:30.806Z,12.26
2023-04-27T22:05:33.547Z,12.15
2023-04-27T22:08:35.819Z,11.74
2023-04-27T22:11:37.972Z,11.40
2023-04-27T22:14:42.926Z,11.39
2023-04-27T22:17:44.957Z,11.32
2023-04-27T22:20:47.415Z,11.23
2023-04-27T22:23:49.322Z,11.02
2023-04-27T22:26:51.127Z,11.23
2023-04-27T22:29:53.024Z,11.30
2023-04-27T22:32:55.373Z,11.05
2023-04-27T22:35:57.433Z,10.36
2023-04-27T22:38:59.464Z,11.03
2023-04-27T22:42:01.452Z,10.87
2023-04-27T22:45:03.395Z,10.22
2023-04-27T22:48:05.392Z,11.04
2023-04-27T22:51:07.986Z,11.40
2023-04-27T22:54:09.887Z,11.07
2023-04-27T22:57:11.971Z,10.83
2023-04-27T23:00:14.047Z,11.22
2023-04-27T23:03:16.306Z,11.10
2023-04-27T23:06:18.506Z,10.51
2023-04-27T23:09:25.417Z,9.81
2023-04-27T23:12:28.871Z,10.45
2023-04-27T23:15:31.147Z,10.95
2023-04-27T23:18:33.429Z,10.66
2023-04-27T23:21:35.392Z,9.91
2023-04-27T23:24:37.428Z,9.68
2023-04-27T23:27:39.283Z,9.58
2023-04-27T23:30:41.368Z,10.24
2023-04-27T23:33:43.269Z,10.61
2023-04-27T23:36:47.408Z,10.20
2023-04-27T23:39:49.318Z,10.73
2023-04-27T23:42:51.929Z,10.59
2023-04-27T23:45:53.869Z,9.46
2023-04-27T23:48:55.836Z,9.49
2023-04-27T23:51:57.729Z,9.90
2023-04-27T23:54:59.575Z,10.09
2023-04-27T23:58:01.408Z,10.19
